<?xml version="1.0" encoding="UTF-8" standalone="no" ?>
<gpx xmlns="http://www.topografix.com/GPX/1/1" xmlns:xsi="http://www.w3.org/2001/XMLSchema-instance" xsi:schemaLocation="http://www.topografix.com/GPX/1/1 http://www.topografix.com/GPX/1/1/gpx.xsd" version="1.1" creator="VisuGPX - https://www.visugpx.com">
  <metadata>
    <name>13-Sangle du Pinet</name>
    <desc><![CDATA[

]]></desc>
  </metadata>
  <trk>
    <name><![CDATA[13-Sangle du Pinet]]></name>
    <trkseg>
      <trkpt lat="45.4327" lon="5.90419">
        <ele>1789</ele>
      </trkpt>
      <trkpt lat="45.43266" lon="5.90411">
        <ele>1786</ele>
      </trkpt>
      <trkpt lat="45.4326" lon="5.90406">
        <ele>1792</ele>
      </trkpt>
      <trkpt lat="45.43254" lon="5.90403">
        <ele>1796</ele>
      </trkpt>
      <trkpt lat="45.43248" lon="5.90403">
        <ele>1835</ele>
      </trkpt>
      <trkpt lat="45.43241" lon="5.90403">
        <ele>1833</ele>
      </trkpt>
      <trkpt lat="45.43234" lon="5.90403">
        <ele>1830</ele>
      </trkpt>
      <trkpt lat="45.43227" lon="5.90403">
        <ele>1827</ele>
      </trkpt>
      <trkpt lat="45.4322" lon="5.90403">
        <ele>1825</ele>
      </trkpt>
      <trkpt lat="45.43214" lon="5.90403">
        <ele>1824</ele>
      </trkpt>
      <trkpt lat="45.43206" lon="5.90403">
        <ele>1823</ele>
      </trkpt>
      <trkpt lat="45.432" lon="5.90403">
        <ele>1822</ele>
      </trkpt>
      <trkpt lat="45.43193" lon="5.90403">
        <ele>1823</ele>
      </trkpt>
      <trkpt lat="45.43187" lon="5.90402">
        <ele>1823</ele>
      </trkpt>
      <trkpt lat="45.43181" lon="5.90398">
        <ele>1823</ele>
      </trkpt>
      <trkpt lat="45.43175" lon="5.90394">
        <ele>1821</ele>
      </trkpt>
      <trkpt lat="45.43168" lon="5.9039">
        <ele>1819</ele>
      </trkpt>
      <trkpt lat="45.43161" lon="5.90389">
        <ele>1807</ele>
      </trkpt>
      <trkpt lat="45.43155" lon="5.90391">
        <ele>1807</ele>
      </trkpt>
      <trkpt lat="45.43149" lon="5.90393">
        <ele>1807</ele>
      </trkpt>
      <trkpt lat="45.43143" lon="5.90396">
        <ele>1806</ele>
      </trkpt>
      <trkpt lat="45.4314" lon="5.90398">
        <ele>1806</ele>
        <time>2020-07-29T06:29:37Z</time>
      </trkpt>
      <trkpt lat="45.43135" lon="5.90403">
        <ele>1807</ele>
        <time>2020-07-29T06:30:35Z</time>
      </trkpt>
      <trkpt lat="45.43129" lon="5.90406">
        <ele>1806</ele>
        <time>2020-07-29T06:31:25Z</time>
      </trkpt>
      <trkpt lat="45.43123" lon="5.9041">
        <ele>1806</ele>
        <time>2020-07-29T06:31:34Z</time>
      </trkpt>
      <trkpt lat="45.43116" lon="5.90413">
        <ele>1806</ele>
        <time>2020-07-29T06:31:41Z</time>
      </trkpt>
      <trkpt lat="45.43109" lon="5.90415">
        <ele>1806</ele>
        <time>2020-07-29T06:31:48Z</time>
      </trkpt>
      <trkpt lat="45.43103" lon="5.9042">
        <ele>1829</ele>
        <time>2020-07-29T06:31:55Z</time>
      </trkpt>
      <trkpt lat="45.43096" lon="5.90421">
        <ele>1827</ele>
        <time>2020-07-29T06:32:02Z</time>
      </trkpt>
      <trkpt lat="45.4309" lon="5.90422">
        <ele>1824</ele>
        <time>2020-07-29T06:32:09Z</time>
      </trkpt>
      <trkpt lat="45.43084" lon="5.90427">
        <ele>1825</ele>
        <time>2020-07-29T06:32:17Z</time>
      </trkpt>
      <trkpt lat="45.43081" lon="5.90435">
        <ele>1824</ele>
        <time>2020-07-29T06:32:26Z</time>
      </trkpt>
      <trkpt lat="45.43074" lon="5.90434">
        <ele>1824</ele>
        <time>2020-07-29T06:32:34Z</time>
      </trkpt>
      <trkpt lat="45.43068" lon="5.90437">
        <ele>1824</ele>
        <time>2020-07-29T06:32:41Z</time>
      </trkpt>
      <trkpt lat="45.43061" lon="5.90438">
        <ele>1825</ele>
        <time>2020-07-29T06:32:47Z</time>
      </trkpt>
      <trkpt lat="45.43053" lon="5.90439">
        <ele>1825</ele>
        <time>2020-07-29T06:32:54Z</time>
      </trkpt>
      <trkpt lat="45.43047" lon="5.90443">
        <ele>1825</ele>
        <time>2020-07-29T06:33:03Z</time>
      </trkpt>
      <trkpt lat="45.4304" lon="5.90443">
        <ele>1825</ele>
        <time>2020-07-29T06:33:12Z</time>
      </trkpt>
      <trkpt lat="45.43033" lon="5.90443">
        <ele>1825</ele>
        <time>2020-07-29T06:33:23Z</time>
      </trkpt>
      <trkpt lat="45.43028" lon="5.90437">
        <ele>1824</ele>
        <time>2020-07-29T06:33:30Z</time>
      </trkpt>
      <trkpt lat="45.4302" lon="5.90436">
        <ele>1823</ele>
        <time>2020-07-29T06:33:40Z</time>
      </trkpt>
      <trkpt lat="45.43013" lon="5.90436">
        <ele>1822</ele>
        <time>2020-07-29T06:33:50Z</time>
      </trkpt>
      <trkpt lat="45.43006" lon="5.90435">
        <ele>1821</ele>
        <time>2020-07-29T06:33:56Z</time>
      </trkpt>
      <trkpt lat="45.43" lon="5.90431">
        <ele>1820</ele>
        <time>2020-07-29T06:34:02Z</time>
      </trkpt>
      <trkpt lat="45.42992" lon="5.90428">
        <ele>1820</ele>
        <time>2020-07-29T06:34:12Z</time>
      </trkpt>
      <trkpt lat="45.42985" lon="5.90428">
        <ele>1822</ele>
        <time>2020-07-29T06:34:20Z</time>
      </trkpt>
      <trkpt lat="45.42978" lon="5.90424">
        <ele>1823</ele>
        <time>2020-07-29T06:34:28Z</time>
      </trkpt>
      <trkpt lat="45.42972" lon="5.90419">
        <ele>1824</ele>
        <time>2020-07-29T06:34:35Z</time>
      </trkpt>
      <trkpt lat="45.42966" lon="5.90415">
        <ele>1809</ele>
        <time>2020-07-29T06:34:41Z</time>
      </trkpt>
      <trkpt lat="45.42958" lon="5.90413">
        <ele>1809</ele>
        <time>2020-07-29T06:34:51Z</time>
      </trkpt>
      <trkpt lat="45.42952" lon="5.90408">
        <ele>1810</ele>
        <time>2020-07-29T06:35:03Z</time>
      </trkpt>
      <trkpt lat="45.42946" lon="5.904">
        <ele>1810</ele>
        <time>2020-07-29T06:35:11Z</time>
      </trkpt>
      <trkpt lat="45.4294" lon="5.90394">
        <ele>1810</ele>
        <time>2020-07-29T06:35:18Z</time>
      </trkpt>
      <trkpt lat="45.42934" lon="5.90389">
        <ele>1810</ele>
        <time>2020-07-29T06:35:27Z</time>
      </trkpt>
      <trkpt lat="45.42928" lon="5.90383">
        <ele>1809</ele>
        <time>2020-07-29T06:35:34Z</time>
      </trkpt>
      <trkpt lat="45.42922" lon="5.9038">
        <ele>1809</ele>
        <time>2020-07-29T06:35:42Z</time>
      </trkpt>
      <trkpt lat="45.42915" lon="5.90379">
        <ele>1814</ele>
        <time>2020-07-29T06:35:53Z</time>
      </trkpt>
      <trkpt lat="45.42908" lon="5.90376">
        <ele>1813</ele>
        <time>2020-07-29T06:35:58Z</time>
      </trkpt>
      <trkpt lat="45.42903" lon="5.90383">
        <ele>1814</ele>
        <time>2020-07-29T06:36:06Z</time>
      </trkpt>
      <trkpt lat="45.42899" lon="5.9039">
        <ele>1815</ele>
        <time>2020-07-29T06:36:15Z</time>
      </trkpt>
      <trkpt lat="45.42893" lon="5.90395">
        <ele>1816</ele>
        <time>2020-07-29T06:36:30Z</time>
      </trkpt>
      <trkpt lat="45.42886" lon="5.90397">
        <ele>1816</ele>
        <time>2020-07-29T06:36:38Z</time>
      </trkpt>
      <trkpt lat="45.42881" lon="5.90403">
        <ele>1816</ele>
        <time>2020-07-29T06:36:47Z</time>
      </trkpt>
      <trkpt lat="45.42874" lon="5.90407">
        <ele>1817</ele>
        <time>2020-07-29T06:36:55Z</time>
      </trkpt>
      <trkpt lat="45.42867" lon="5.9041">
        <ele>1817</ele>
        <time>2020-07-29T06:37:03Z</time>
      </trkpt>
      <trkpt lat="45.4286" lon="5.90412">
        <ele>1818</ele>
        <time>2020-07-29T06:37:12Z</time>
      </trkpt>
      <trkpt lat="45.42853" lon="5.90416">
        <ele>1820</ele>
        <time>2020-07-29T06:37:20Z</time>
      </trkpt>
      <trkpt lat="45.42847" lon="5.90415">
        <ele>1821</ele>
        <time>2020-07-29T06:37:28Z</time>
      </trkpt>
      <trkpt lat="45.42839" lon="5.90415">
        <ele>1824</ele>
        <time>2020-07-29T06:37:37Z</time>
      </trkpt>
      <trkpt lat="45.42833" lon="5.90413">
        <ele>1824</ele>
        <time>2020-07-29T06:37:46Z</time>
      </trkpt>
      <trkpt lat="45.42826" lon="5.90415">
        <ele>1823</ele>
        <time>2020-07-29T06:37:55Z</time>
      </trkpt>
      <trkpt lat="45.42819" lon="5.90417">
        <ele>1829</ele>
        <time>2020-07-29T06:38:03Z</time>
      </trkpt>
      <trkpt lat="45.42813" lon="5.90413">
        <ele>1818</ele>
        <time>2020-07-29T06:38:12Z</time>
      </trkpt>
      <trkpt lat="45.42807" lon="5.90412">
        <ele>1816</ele>
        <time>2020-07-29T06:38:20Z</time>
      </trkpt>
      <trkpt lat="45.428" lon="5.90409">
        <ele>1815</ele>
        <time>2020-07-29T06:38:27Z</time>
      </trkpt>
      <trkpt lat="45.42793" lon="5.90408">
        <ele>1815</ele>
        <time>2020-07-29T06:38:36Z</time>
      </trkpt>
      <trkpt lat="45.42787" lon="5.90405">
        <ele>1815</ele>
        <time>2020-07-29T06:38:43Z</time>
      </trkpt>
      <trkpt lat="45.4278" lon="5.90403">
        <ele>1815</ele>
        <time>2020-07-29T06:38:51Z</time>
      </trkpt>
      <trkpt lat="45.42775" lon="5.90396">
        <ele>1814</ele>
        <time>2020-07-29T06:39:03Z</time>
      </trkpt>
      <trkpt lat="45.42769" lon="5.90394">
        <ele>1814</ele>
        <time>2020-07-29T06:39:08Z</time>
      </trkpt>
      <trkpt lat="45.42762" lon="5.90391">
        <ele>1813</ele>
        <time>2020-07-29T06:39:14Z</time>
      </trkpt>
      <trkpt lat="45.42755" lon="5.90389">
        <ele>1813</ele>
        <time>2020-07-29T06:39:22Z</time>
      </trkpt>
      <trkpt lat="45.42748" lon="5.90386">
        <ele>1814</ele>
        <time>2020-07-29T06:39:28Z</time>
      </trkpt>
      <trkpt lat="45.42742" lon="5.90385">
        <ele>1813</ele>
        <time>2020-07-29T06:39:37Z</time>
      </trkpt>
      <trkpt lat="45.42735" lon="5.90387">
        <ele>1814</ele>
        <time>2020-07-29T06:39:48Z</time>
      </trkpt>
      <trkpt lat="45.42729" lon="5.90384">
        <ele>1813</ele>
        <time>2020-07-29T06:39:55Z</time>
      </trkpt>
      <trkpt lat="45.42722" lon="5.9038">
        <ele>1812</ele>
        <time>2020-07-29T06:40:02Z</time>
      </trkpt>
      <trkpt lat="45.42715" lon="5.9038">
        <ele>1813</ele>
        <time>2020-07-29T06:40:08Z</time>
      </trkpt>
      <trkpt lat="45.42709" lon="5.90379">
        <ele>1812</ele>
        <time>2020-07-29T06:40:52Z</time>
      </trkpt>
      <trkpt lat="45.42705" lon="5.90371">
        <ele>1811</ele>
        <time>2020-07-29T06:40:58Z</time>
      </trkpt>
      <trkpt lat="45.42698" lon="5.9037">
        <ele>1812</ele>
        <time>2020-07-29T06:41:08Z</time>
      </trkpt>
      <trkpt lat="45.42691" lon="5.90371">
        <ele>1812</ele>
        <time>2020-07-29T06:41:16Z</time>
      </trkpt>
      <trkpt lat="45.42685" lon="5.9037">
        <ele>1812</ele>
        <time>2020-07-29T06:41:29Z</time>
      </trkpt>
      <trkpt lat="45.42681" lon="5.90378">
        <ele>1814</ele>
        <time>2020-07-29T06:41:37Z</time>
      </trkpt>
      <trkpt lat="45.4268" lon="5.90387">
        <ele>1817</ele>
        <time>2020-07-29T06:41:46Z</time>
      </trkpt>
      <trkpt lat="45.4268" lon="5.90397">
        <ele>1819</ele>
        <time>2020-07-29T06:41:58Z</time>
      </trkpt>
      <trkpt lat="45.42673" lon="5.90392">
        <ele>1818</ele>
        <time>2020-07-29T06:42:25Z</time>
      </trkpt>
      <trkpt lat="45.42666" lon="5.90388">
        <ele>1825</ele>
        <time>2020-07-29T06:42:36Z</time>
      </trkpt>
      <trkpt lat="45.4266" lon="5.90381">
        <ele>1823</ele>
        <time>2020-07-29T06:42:42Z</time>
      </trkpt>
      <trkpt lat="45.42654" lon="5.90375">
        <ele>1823</ele>
        <time>2020-07-29T06:42:48Z</time>
      </trkpt>
      <trkpt lat="45.42648" lon="5.90371">
        <ele>1822</ele>
        <time>2020-07-29T06:42:56Z</time>
      </trkpt>
      <trkpt lat="45.42643" lon="5.90361">
        <ele>1821</ele>
        <time>2020-07-29T06:43:03Z</time>
      </trkpt>
      <trkpt lat="45.42639" lon="5.90351">
        <ele>1820</ele>
        <time>2020-07-29T06:43:09Z</time>
      </trkpt>
      <trkpt lat="45.42636" lon="5.9034">
        <ele>1819</ele>
        <time>2020-07-29T06:43:14Z</time>
      </trkpt>
      <trkpt lat="45.4263" lon="5.90344">
        <ele>1821</ele>
        <time>2020-07-29T06:43:33Z</time>
      </trkpt>
      <trkpt lat="45.42624" lon="5.90343">
        <ele>1821</ele>
        <time>2020-07-29T06:43:41Z</time>
      </trkpt>
      <trkpt lat="45.42617" lon="5.90339">
        <ele>1822</ele>
        <time>2020-07-29T06:43:50Z</time>
      </trkpt>
      <trkpt lat="45.42612" lon="5.90346">
        <ele>1823</ele>
        <time>2020-07-29T06:44:04Z</time>
      </trkpt>
      <trkpt lat="45.42605" lon="5.90349">
        <ele>1823</ele>
        <time>2020-07-29T06:44:37Z</time>
      </trkpt>
      <trkpt lat="45.42599" lon="5.90355">
        <ele>1824</ele>
        <time>2020-07-29T06:44:44Z</time>
      </trkpt>
      <trkpt lat="45.42592" lon="5.90354">
        <ele>1824</ele>
        <time>2020-07-29T06:44:50Z</time>
      </trkpt>
      <trkpt lat="45.42585" lon="5.90356">
        <ele>1825</ele>
        <time>2020-07-29T06:44:56Z</time>
      </trkpt>
      <trkpt lat="45.42579" lon="5.90356">
        <ele>1829</ele>
        <time>2020-07-29T06:45:03Z</time>
      </trkpt>
      <trkpt lat="45.42571" lon="5.90354">
        <ele>1829</ele>
        <time>2020-07-29T06:45:09Z</time>
      </trkpt>
      <trkpt lat="45.42564" lon="5.90351">
        <ele>1830</ele>
        <time>2020-07-29T06:45:16Z</time>
      </trkpt>
      <trkpt lat="45.4256" lon="5.90359">
        <ele>1831</ele>
        <time>2020-07-29T06:45:22Z</time>
      </trkpt>
      <trkpt lat="45.42555" lon="5.90373">
        <ele>1833</ele>
        <time>2020-07-29T06:45:28Z</time>
      </trkpt>
      <trkpt lat="45.42549" lon="5.90377">
        <ele>1834</ele>
        <time>2020-07-29T06:45:34Z</time>
      </trkpt>
      <trkpt lat="45.42544" lon="5.90384">
        <ele>1834</ele>
        <time>2020-07-29T06:45:42Z</time>
      </trkpt>
      <trkpt lat="45.42538" lon="5.90389">
        <ele>1835</ele>
        <time>2020-07-29T06:46:04Z</time>
      </trkpt>
      <trkpt lat="45.42532" lon="5.90386">
        <ele>1835</ele>
        <time>2020-07-29T06:46:10Z</time>
      </trkpt>
      <trkpt lat="45.42525" lon="5.90388">
        <ele>1836</ele>
        <time>2020-07-29T06:46:18Z</time>
      </trkpt>
      <trkpt lat="45.42519" lon="5.9038">
        <ele>1835</ele>
        <time>2020-07-29T06:46:25Z</time>
      </trkpt>
      <trkpt lat="45.42514" lon="5.90372">
        <ele>1834</ele>
        <time>2020-07-29T06:46:30Z</time>
      </trkpt>
      <trkpt lat="45.42508" lon="5.90348">
        <ele>1829</ele>
        <time>2020-07-29T06:46:36Z</time>
      </trkpt>
      <trkpt lat="45.42503" lon="5.9034">
        <ele>1827</ele>
        <time>2020-07-29T06:46:42Z</time>
      </trkpt>
      <trkpt lat="45.42497" lon="5.90336">
        <ele>1827</ele>
        <time>2020-07-29T06:46:53Z</time>
      </trkpt>
      <trkpt lat="45.42491" lon="5.90334">
        <ele>1829</ele>
        <time>2020-07-29T06:47:04Z</time>
      </trkpt>
      <trkpt lat="45.42484" lon="5.9033">
        <ele>1818</ele>
        <time>2020-07-29T06:47:11Z</time>
      </trkpt>
      <trkpt lat="45.42479" lon="5.90323">
        <ele>1816</ele>
        <time>2020-07-29T06:47:16Z</time>
      </trkpt>
      <trkpt lat="45.42474" lon="5.90316">
        <ele>1815</ele>
        <time>2020-07-29T06:47:22Z</time>
      </trkpt>
      <trkpt lat="45.42469" lon="5.90309">
        <ele>1813</ele>
        <time>2020-07-29T06:47:36Z</time>
      </trkpt>
      <trkpt lat="45.42463" lon="5.90306">
        <ele>1813</ele>
        <time>2020-07-29T06:47:42Z</time>
      </trkpt>
      <trkpt lat="45.42456" lon="5.90305">
        <ele>1814</ele>
        <time>2020-07-29T06:47:49Z</time>
      </trkpt>
      <trkpt lat="45.42449" lon="5.903">
        <ele>1813</ele>
        <time>2020-07-29T06:47:58Z</time>
      </trkpt>
      <trkpt lat="45.42443" lon="5.90296">
        <ele>1813</ele>
        <time>2020-07-29T06:48:04Z</time>
      </trkpt>
      <trkpt lat="45.42438" lon="5.90289">
        <ele>1811</ele>
        <time>2020-07-29T06:48:11Z</time>
      </trkpt>
      <trkpt lat="45.42434" lon="5.90282">
        <ele>1809</ele>
        <time>2020-07-29T06:48:19Z</time>
      </trkpt>
      <trkpt lat="45.42428" lon="5.90278">
        <ele>1808</ele>
        <time>2020-07-29T06:48:27Z</time>
      </trkpt>
      <trkpt lat="45.42423" lon="5.90271">
        <ele>1805</ele>
        <time>2020-07-29T06:48:34Z</time>
      </trkpt>
      <trkpt lat="45.42417" lon="5.90266">
        <ele>1804</ele>
        <time>2020-07-29T06:48:42Z</time>
      </trkpt>
      <trkpt lat="45.42411" lon="5.90263">
        <ele>1812</ele>
        <time>2020-07-29T06:48:50Z</time>
      </trkpt>
      <trkpt lat="45.42403" lon="5.90261">
        <ele>1815</ele>
        <time>2020-07-29T06:48:59Z</time>
      </trkpt>
      <trkpt lat="45.42396" lon="5.90259">
        <ele>1818</ele>
        <time>2020-07-29T06:49:06Z</time>
      </trkpt>
      <trkpt lat="45.42389" lon="5.90256">
        <ele>1820</ele>
        <time>2020-07-29T06:49:17Z</time>
      </trkpt>
      <trkpt lat="45.42384" lon="5.90251">
        <ele>1822</ele>
        <time>2020-07-29T06:49:25Z</time>
      </trkpt>
      <trkpt lat="45.42379" lon="5.90245">
        <ele>1799</ele>
        <time>2020-07-29T06:49:31Z</time>
      </trkpt>
      <trkpt lat="45.42372" lon="5.90248">
        <ele>1802</ele>
        <time>2020-07-29T06:49:44Z</time>
      </trkpt>
      <trkpt lat="45.42365" lon="5.90246">
        <ele>1805</ele>
        <time>2020-07-29T06:49:50Z</time>
      </trkpt>
      <trkpt lat="45.42359" lon="5.90248">
        <ele>1809</ele>
        <time>2020-07-29T06:49:58Z</time>
      </trkpt>
      <trkpt lat="45.42351" lon="5.90251">
        <ele>1832</ele>
        <time>2020-07-29T06:50:07Z</time>
      </trkpt>
      <trkpt lat="45.42345" lon="5.90253">
        <ele>1833</ele>
        <time>2020-07-29T06:50:13Z</time>
      </trkpt>
      <trkpt lat="45.42338" lon="5.90251">
        <ele>1835</ele>
        <time>2020-07-29T06:50:20Z</time>
      </trkpt>
      <trkpt lat="45.42331" lon="5.90249">
        <ele>1835</ele>
        <time>2020-07-29T06:50:27Z</time>
      </trkpt>
      <trkpt lat="45.42323" lon="5.90246">
        <ele>1833</ele>
        <time>2020-07-29T06:50:35Z</time>
      </trkpt>
      <trkpt lat="45.42317" lon="5.90248">
        <ele>1832</ele>
        <time>2020-07-29T06:50:43Z</time>
      </trkpt>
      <trkpt lat="45.4231" lon="5.90249">
        <ele>1832</ele>
        <time>2020-07-29T06:50:49Z</time>
      </trkpt>
      <trkpt lat="45.42304" lon="5.90246">
        <ele>1831</ele>
        <time>2020-07-29T06:50:55Z</time>
      </trkpt>
      <trkpt lat="45.42297" lon="5.90248">
        <ele>1832</ele>
        <time>2020-07-29T06:51:03Z</time>
      </trkpt>
      <trkpt lat="45.4229" lon="5.90245">
        <ele>1832</ele>
        <time>2020-07-29T06:51:13Z</time>
      </trkpt>
      <trkpt lat="45.42285" lon="5.90239">
        <ele>1832</ele>
        <time>2020-07-29T06:51:18Z</time>
      </trkpt>
      <trkpt lat="45.42278" lon="5.90237">
        <ele>1833</ele>
        <time>2020-07-29T06:51:27Z</time>
      </trkpt>
      <trkpt lat="45.42272" lon="5.90231">
        <ele>1834</ele>
        <time>2020-07-29T06:51:35Z</time>
      </trkpt>
      <trkpt lat="45.42266" lon="5.90227">
        <ele>1833</ele>
        <time>2020-07-29T06:51:46Z</time>
      </trkpt>
      <trkpt lat="45.42261" lon="5.90221">
        <ele>1832</ele>
        <time>2020-07-29T06:51:53Z</time>
      </trkpt>
      <trkpt lat="45.42258" lon="5.90212">
        <ele>1829</ele>
        <time>2020-07-29T06:52:04Z</time>
      </trkpt>
      <trkpt lat="45.42251" lon="5.90208">
        <ele>1828</ele>
        <time>2020-07-29T06:52:13Z</time>
      </trkpt>
      <trkpt lat="45.42245" lon="5.90204">
        <ele>1831</ele>
        <time>2020-07-29T06:52:21Z</time>
      </trkpt>
      <trkpt lat="45.4224" lon="5.90196">
        <ele>1829</ele>
        <time>2020-07-29T06:52:34Z</time>
      </trkpt>
      <trkpt lat="45.42235" lon="5.90186">
        <ele>1826</ele>
        <time>2020-07-29T06:52:40Z</time>
      </trkpt>
      <trkpt lat="45.42228" lon="5.90186">
        <ele>1827</ele>
        <time>2020-07-29T06:52:49Z</time>
      </trkpt>
      <trkpt lat="45.42222" lon="5.90187">
        <ele>1828</ele>
        <time>2020-07-29T06:52:55Z</time>
      </trkpt>
      <trkpt lat="45.42215" lon="5.90189">
        <ele>1829</ele>
        <time>2020-07-29T06:53:03Z</time>
      </trkpt>
      <trkpt lat="45.42208" lon="5.90192">
        <ele>1830</ele>
        <time>2020-07-29T06:53:11Z</time>
      </trkpt>
      <trkpt lat="45.42202" lon="5.90193">
        <ele>1830</ele>
        <time>2020-07-29T06:53:19Z</time>
      </trkpt>
      <trkpt lat="45.42195" lon="5.90196">
        <ele>1830</ele>
        <time>2020-07-29T06:53:27Z</time>
      </trkpt>
      <trkpt lat="45.42189" lon="5.90199">
        <ele>1831</ele>
        <time>2020-07-29T06:53:34Z</time>
      </trkpt>
      <trkpt lat="45.42182" lon="5.90201">
        <ele>1831</ele>
        <time>2020-07-29T06:53:41Z</time>
      </trkpt>
      <trkpt lat="45.42174" lon="5.90205">
        <ele>1831</ele>
        <time>2020-07-29T06:53:48Z</time>
      </trkpt>
      <trkpt lat="45.42167" lon="5.90208">
        <ele>1832</ele>
        <time>2020-07-29T06:53:54Z</time>
      </trkpt>
      <trkpt lat="45.42162" lon="5.90214">
        <ele>1834</ele>
        <time>2020-07-29T06:54:01Z</time>
      </trkpt>
      <trkpt lat="45.42155" lon="5.90212">
        <ele>1834</ele>
        <time>2020-07-29T06:54:10Z</time>
      </trkpt>
      <trkpt lat="45.42148" lon="5.90213">
        <ele>1834</ele>
        <time>2020-07-29T06:54:18Z</time>
      </trkpt>
      <trkpt lat="45.42141" lon="5.9021">
        <ele>1834</ele>
        <time>2020-07-29T06:54:26Z</time>
      </trkpt>
      <trkpt lat="45.42135" lon="5.90205">
        <ele>1833</ele>
        <time>2020-07-29T06:54:32Z</time>
      </trkpt>
      <trkpt lat="45.42128" lon="5.90202">
        <ele>1833</ele>
        <time>2020-07-29T06:54:39Z</time>
      </trkpt>
      <trkpt lat="45.42122" lon="5.90197">
        <ele>1833</ele>
        <time>2020-07-29T06:54:48Z</time>
      </trkpt>
      <trkpt lat="45.42115" lon="5.90195">
        <ele>1833</ele>
        <time>2020-07-29T06:54:56Z</time>
      </trkpt>
      <trkpt lat="45.42108" lon="5.90193">
        <ele>1833</ele>
        <time>2020-07-29T06:55:05Z</time>
      </trkpt>
      <trkpt lat="45.42102" lon="5.90187">
        <ele>1832</ele>
        <time>2020-07-29T06:55:12Z</time>
      </trkpt>
      <trkpt lat="45.42096" lon="5.90182">
        <ele>1832</ele>
        <time>2020-07-29T06:55:44Z</time>
      </trkpt>
      <trkpt lat="45.42089" lon="5.90182">
        <ele>1831</ele>
        <time>2020-07-29T06:55:51Z</time>
      </trkpt>
      <trkpt lat="45.42083" lon="5.90185">
        <ele>1832</ele>
        <time>2020-07-29T06:55:58Z</time>
      </trkpt>
      <trkpt lat="45.42076" lon="5.90178">
        <ele>1831</ele>
        <time>2020-07-29T06:56:04Z</time>
      </trkpt>
      <trkpt lat="45.4207" lon="5.90177">
        <ele>1831</ele>
        <time>2020-07-29T06:56:10Z</time>
      </trkpt>
      <trkpt lat="45.42063" lon="5.90181">
        <ele>1832</ele>
        <time>2020-07-29T06:56:17Z</time>
      </trkpt>
      <trkpt lat="45.42057" lon="5.90179">
        <ele>1832</ele>
        <time>2020-07-29T06:56:25Z</time>
      </trkpt>
      <trkpt lat="45.4205" lon="5.90177">
        <ele>1832</ele>
        <time>2020-07-29T06:56:32Z</time>
      </trkpt>
      <trkpt lat="45.42044" lon="5.90173">
        <ele>1831</ele>
        <time>2020-07-29T06:56:39Z</time>
      </trkpt>
      <trkpt lat="45.42038" lon="5.90169">
        <ele>1831</ele>
        <time>2020-07-29T06:56:47Z</time>
      </trkpt>
      <trkpt lat="45.42032" lon="5.90167">
        <ele>1830</ele>
        <time>2020-07-29T06:56:54Z</time>
      </trkpt>
      <trkpt lat="45.42026" lon="5.90162">
        <ele>1807</ele>
        <time>2020-07-29T06:57:03Z</time>
      </trkpt>
      <trkpt lat="45.42022" lon="5.90153">
        <ele>1806</ele>
        <time>2020-07-29T06:57:08Z</time>
      </trkpt>
      <trkpt lat="45.42019" lon="5.90143">
        <ele>1803</ele>
        <time>2020-07-29T06:57:14Z</time>
      </trkpt>
      <trkpt lat="45.42014" lon="5.90137">
        <ele>1801</ele>
        <time>2020-07-29T06:57:21Z</time>
      </trkpt>
      <trkpt lat="45.42008" lon="5.9014">
        <ele>1803</ele>
        <time>2020-07-29T06:57:36Z</time>
      </trkpt>
      <trkpt lat="45.42001" lon="5.90144">
        <ele>1806</ele>
        <time>2020-07-29T06:57:53Z</time>
      </trkpt>
      <trkpt lat="45.41995" lon="5.90149">
        <ele>1814</ele>
        <time>2020-07-29T06:58:02Z</time>
      </trkpt>
      <trkpt lat="45.41989" lon="5.90154">
        <ele>1815</ele>
        <time>2020-07-29T06:58:10Z</time>
      </trkpt>
      <trkpt lat="45.41983" lon="5.90158">
        <ele>1815</ele>
        <time>2020-07-29T06:58:49Z</time>
      </trkpt>
      <trkpt lat="45.41977" lon="5.90162">
        <ele>1815</ele>
        <time>2020-07-29T06:58:56Z</time>
      </trkpt>
      <trkpt lat="45.4197" lon="5.90165">
        <ele>1815</ele>
        <time>2020-07-29T06:59:06Z</time>
      </trkpt>
      <trkpt lat="45.41964" lon="5.9016">
        <ele>1815</ele>
        <time>2020-07-29T06:59:14Z</time>
      </trkpt>
    </trkseg>
  </trk>
</gpx>